Time;durP1;ratioP1;P1;durP2;ratioP2;P2;SDS_P1;SDS_P2;PMS_P1;PMS_P2;Temp;Humidity;BMP_temperature;BMP_pressure;BME280_temperature;BME280_humidity;BME280_pressure;Samples;Min_cycle;Max_cycle;Signal;HPM_P1;HPM_P2
2023/03/17 00:02:08;;;;;;;32.35;13.35;;;;;;;7.87;76.13;100892.65;1764737;81;21070;-40
2023/03/17 00:04:36;;;;;;;26.82;11.63;;;;;;;7.87;76.07;100892.65;1764597;81;21083;-40
2023/03/17 00:07:07;;;;;;;28.07;11.15;;;;;;;7.86;75.96;100893.56;1764684;81;21055;-41
2023/03/17 00:09:35;;;;;;;30.75;12.40;;;;;;;7.83;75.92;100893.17;1764743;81;21038;-40
2023/03/17 00:12:07;;;;;;;26.52;12.03;;;;;;;7.83;75.88;100902.35;1764610;81;21054;-41
2023/03/17 00:14:36;;;;;;;25.57;11.65;;;;;;;7.81;75.95;100899.37;1764639;81;21078;-41
2023/03/17 00:17:05;;;;;;;32.15;12.78;;;;;;;7.77;75.98;100899.04;1761420;81;21083;-45
2023/03/17 00:19:35;;;;;;;32.80;12.13;;;;;;;7.73;76.04;100895.17;1759267;81;21043;-39
2023/03/17 00:22:06;;;;;;;30.05;12.88;;;;;;;7.71;76.14;100896.98;1758511;81;21525;-41
2023/03/17 00:24:35;;;;;;;26.95;11.35;;;;;;;7.70;76.17;100895.23;1758762;81;21103;-42
2023/03/17 00:27:06;;;;;;;25.62;11.40;;;;;;;7.68;76.17;100902.28;1758702;81;21157;-39
2023/03/17 00:29:35;;;;;;;28.40;11.57;;;;;;;7.66;76.18;100915.88;1758279;80;21094;-42
2023/03/17 00:32:04;;;;;;;27.45;12.78;;;;;;;7.65;76.10;100910.67;1735928;83;21130;-39
2023/03/17 00:34:34;;;;;;;33.50;11.63;;;;;;;7.63;76.08;100912.47;1705646;84;21551;-40
2023/03/17 00:37:03;;;;;;;30.88;12.35;;;;;;;7.60;76.16;100909.91;1708882;83;21593;-41
2023/03/17 00:39:31;;;;;;;35.15;13.35;;;;;;;7.56;76.22;100909.12;1737528;81;21099;-39
2023/03/17 00:42:00;;;;;;;35.92;12.47;;;;;;;7.54;76.30;100916.16;1736621;83;21116;-40
2023/03/17 00:44:29;;;;;;;29.32;11.57;;;;;;;7.57;76.35;100918.72;1736829;82;21116;-39
2023/03/17 00:46:58;;;;;;;30.88;12.73;;;;;;;7.61;76.25;100916.43;1736693;83;21143;-39
2023/03/17 00:49:28;;;;;;;30.57;12.88;;;;;;;7.66;76.18;100915.88;1738484;81;21103;-39
2023/03/17 00:51:57;;;;;;;25.75;11.90;;;;;;;7.71;76.07;100921.87;1736579;83;21052;-41
2023/03/17 00:54:26;;;;;;;27.48;12.88;;;;;;;7.74;75.97;100920.47;1736462;82;21080;-43
2023/03/17 00:56:55;;;;;;;33.63;12.85;;;;;;;7.79;75.95;100920.83;1738459;81;21080;-41
2023/03/17 00:59:41;;;;;;;43.92;18.98;;;;;;;7.84;75.91;100925.48;1736534;83;21052;-41
2023/03/17 01:02:14;;;;;;;39.42;17.07;;;;;;;7.87;75.91;100928.05;1736517;82;21157;-41
2023/03/17 01:04:44;;;;;;;43.95;15.18;;;;;;;7.87;75.97;100929.35;1736547;83;21185;-42
2023/03/17 01:07:14;;;;;;;42.15;16.62;;;;;;;7.91;75.95;100932.30;1738467;81;21100;-41
2023/03/17 01:09:42;;;;;;;34.18;15.35;;;;;;;7.95;75.88;100930.04;1736626;83;21084;-41
2023/03/17 01:12:13;;;;;;;39.50;15.80;;;;;;;7.97;75.95;100932.17;1736583;82;21131;-42
2023/03/17 01:14:42;;;;;;;41.60;13.40;;;;;;;7.98;75.98;100929.94;1736654;83;21217;-44
2023/03/17 01:17:17;;;;;;;36.15;14.23;;;;;;;7.97;76.15;100929.55;1758083;80;21607;-45
2023/03/17 01:19:47;;;;;;;36.33;12.78;;;;;;;7.97;76.33;100942.66;1757860;80;21139;-45
2023/03/17 01:22:16;;;;;;;40.08;13.75;;;;;;;7.93;76.48;100943.64;1736568;83;21166;-45
2023/03/17 01:24:46;;;;;;;40.67;15.05;;;;;;;7.93;76.49;100959.37;1736545;83;21076;-45
2023/03/17 01:27:15;;;;;;;31.77;12.73;;;;;;;7.92;76.51;100962.87;1738562;81;21048;-47
2023/03/17 01:29:44;;;;;;;34.83;13.35;;;;;;;7.89;76.56;100962.52;1746378;81;21617;-47
2023/03/17 01:32:13;;;;;;;38.78;13.53;;;;;;;7.87;76.70;100959.50;1760172;81;21152;-41
2023/03/17 01:34:41;;;;;;;45.78;14.95;;;;;;;7.91;76.51;100962.03;1760251;81;21115;-42
2023/03/17 01:37:11;;;;;;;43.23;16.20;;;;;;;7.96;76.37;100956.66;1789256;80;21154;-42
2023/03/17 01:39:39;;;;;;;49.60;18.32;;;;;;;8.00;76.31;100959.61;1790250;80;21496;-42
2023/03/17 01:42:09;;;;;;;51.45;19.57;;;;;;;8.02;76.37;100960.88;1790212;80;21133;-42
2023/03/17 01:44:58;;;;;;;50.38;17.20;;;;;;;8.00;76.44;100963.54;1790128;80;21062;-43
2023/03/17 01:47:30;;;;;;;50.10;16.93;;;;;;;8.02;76.47;100957.84;1761920;80;21108;-43
2023/03/17 01:50:05;;;;;;;52.80;18.30;;;;;;;8.00;76.30;100958.30;1760271;81;21562;-43
2023/03/17 01:52:34;;;;;;;40.52;16.70;;;;;;;8.01;76.22;100963.11;1760271;81;21079;-42
2023/03/17 01:55:06;;;;;;;46.53;17.60;;;;;;;8.02;76.20;100968.75;1760035;81;21485;-43
2023/03/17 01:57:40;;;;;;;53.55;18.70;;;;;;;8.04;76.17;100974.39;1784233;80;21547;-43
2023/03/17 02:00:12;;;;;;;39.40;15.90;;;;;;;8.07;76.30;100972.98;1790181;80;21529;-43
2023/03/17 02:02:52;;;;;;;43.23;15.00;;;;;;;8.11;76.37;100973.34;1790188;80;21562;-41
2023/03/17 02:05:27;;;;;;;36.13;14.53;;;;;;;8.17;76.27;100980.19;1790175;80;21118;-42
2023/03/17 02:07:57;;;;;;;45.28;15.95;;;;;;;8.22;76.14;100981.38;1788482;80;21502;-42
2023/03/17 02:10:29;;;;;;;39.33;15.05;;;;;;;8.25;76.04;100990.02;1790383;80;21096;-43
2023/03/17 02:13:04;;;;;;;50.70;15.72;;;;;;;8.28;75.95;100989.96;1790254;80;21498;-43
2023/03/17 02:15:42;;;;;;;52.17;15.75;;;;;;;8.30;75.97;100988.16;1790197;80;21495;-42
2023/03/17 02:18:14;;;;;;;40.17;14.90;;;;;;;8.34;75.91;100988.05;1763263;80;21106;-42
2023/03/17 02:20:55;;;;;;;38.73;15.00;;;;;;;8.37;75.87;100990.61;1772124;80;21138;-42
2023/03/17 02:23:24;;;;;;;41.88;14.07;;;;;;;8.39;75.84;100991.00;1790291;80;21064;-43
2023/03/17 02:25:54;;;;;;;44.95;16.35;;;;;;;8.40;75.86;100988.77;1790166;80;21174;-42
2023/03/17 02:28:25;;;;;;;54.85;18.23;;;;;;;8.39;75.86;100980.50;1787866;80;21130;-43
2023/03/17 02:30:54;;;;;;;66.20;20.50;;;;;;;8.37;75.87;100980.97;1774593;80;21108;-43
2023/03/17 02:33:23;;;;;;;74.97;22.27;;;;;;;8.38;75.88;100979.23;1765801;81;21100;-43
2023/03/17 02:35:53;;;;;;;76.30;22.70;;;;;;;8.37;75.91;100982.28;1765593;80;21608;-44
2023/03/17 02:38:22;;;;;;;68.90;22.35;;;;;;;8.40;76.04;100985.29;1754551;81;21156;-42
2023/03/17 02:40:52;;;;;;;70.92;20.23;;;;;;;8.42;76.22;100983.06;1736430;82;21680;-42
2023/03/17 02:43:21;;;;;;;66.10;21.55;;;;;;;8.45;76.23;100982.98;1736539;83;21092;-42
2023/03/17 02:45:49;;;;;;;75.32;22.20;;;;;;;8.46;76.21;100983.38;1736536;82;21123;-42
2023/03/17 02:48:18;;;;;;;73.65;23.02;;;;;;;8.48;76.16;100988.17;1742597;81;21134;-43
2023/03/17 02:50:47;;;;;;;75.95;24.07;;;;;;;8.47;76.18;100989.52;1765852;81;21115;-43
2023/03/17 02:53:16;;;;;;;85.50;26.85;;;;;;;8.48;76.17;100989.48;1765862;81;21097;-43
2023/03/17 02:55:45;;;;;;;88.47;26.35;;;;;;;8.50;76.19;100988.98;1765871;81;21068;-43
2023/03/17 02:58:14;;;;;;;78.87;23.18;;;;;;;8.52;76.23;100988.06;1765507;81;21598;-43
2023/03/17 03:00:42;;;;;;;77.85;22.35;;;;;;;8.53;76.29;100984.55;1764615;81;21154;-43
2023/03/17 03:03:11;;;;;;;82.62;22.40;;;;;;;8.50;76.46;100985.05;1765769;81;21101;-43
2023/03/17 03:05:40;;;;;;;84.15;24.82;;;;;;;8.48;76.59;100987.28;1765725;81;21183;-43
2023/03/17 03:08:09;;;;;;;87.20;21.48;;;;;;;8.48;76.77;100988.59;1765860;81;21178;-44
2023/03/17 03:10:37;;;;;;;92.27;21.37;;;;;;;8.50;76.89;100987.67;1743462;81;21048;-45
2023/03/17 03:13:06;;;;;;;90.53;20.32;;;;;;;8.52;77.06;100988.06;1736553;83;21052;-44
2023/03/17 03:15:35;;;;;;;78.83;20.92;;;;;;;8.49;77.13;100988.56;1736523;83;21108;-44
2023/03/17 03:18:04;;;;;;;72.10;19.40;;;;;;;8.49;77.31;100997.74;1736510;83;21080;-44
2023/03/17 03:20:33;;;;;;;78.62;19.82;;;;;;;8.52;77.17;100995.94;1751941;81;21842;-42
2023/03/17 03:23:02;;;;;;;67.50;21.70;;;;;;;8.54;77.12;101002.89;1765903;80;21528;-40
2023/03/17 03:25:31;;;;;;;88.37;20.45;;;;;;;8.55;77.12;101005.91;1765764;81;21085;-41
2023/03/17 03:27:59;;;;;;;84.77;21.65;;;;;;;8.50;77.27;101002.53;1765875;81;21088;-42
2023/03/17 03:30:28;;;;;;;83.07;21.15;;;;;;;8.45;77.58;101002.67;1758763;81;22681;-42
2023/03/17 03:32:56;;;;;;;70.20;19.67;;;;;;;8.48;77.70;101005.23;1759965;81;21124;-42
2023/03/17 03:35:25;;;;;;;82.80;20.32;;;;;;;8.51;77.63;101010.83;1760181;81;21653;-42
2023/03/17 03:37:54;;;;;;;68.42;17.15;;;;;;;8.53;77.54;101011.65;1760202;81;21566;-42
2023/03/17 03:40:24;;;;;;;73.20;18.85;;;;;;;8.57;77.43;101019.00;1762046;80;21246;-42
2023/03/17 03:42:53;;;;;;;59.55;17.40;;;;;;;8.57;77.36;101026.87;1760068;81;21103;-42
2023/03/17 03:45:21;;;;;;;55.78;18.50;;;;;;;8.56;77.43;101027.75;1759934;81;21146;-42
2023/03/17 03:47:50;;;;;;;68.60;18.48;;;;;;;8.54;77.65;101032.19;1760108;81;21108;-42
2023/03/17 03:50:19;;;;;;;65.62;17.12;;;;;;;8.52;77.85;101033.56;1760003;81;21076;-42
2023/03/17 03:52:48;;;;;;;71.25;17.95;;;;;;;8.48;78.02;101032.78;1755094;80;21099;-41
2023/03/17 03:55:17;;;;;;;61.35;19.60;;;;;;;8.49;78.03;101033.63;1752789;82;21106;-41
2023/03/17 03:57:46;;;;;;;65.25;19.82;;;;;;;8.50;78.10;101030.98;1752910;82;21102;-41
2023/03/17 04:00:16;;;;;;;63.45;16.02;;;;;;;8.53;78.18;101027.86;1752791;82;21201;-41
2023/03/17 04:02:45;;;;;;;69.67;18.32;;;;;;;8.56;78.03;101031.27;1777147;80;21166;-41
2023/03/17 04:05:17;;;;;;;66.92;19.00;;;;;;;8.54;78.09;101034.81;1790126;80;21605;-44
2023/03/17 04:07:46;;;;;;;72.90;19.95;;;;;;;8.54;78.16;101038.75;1790111;80;21138;-43
2023/03/17 04:10:16;;;;;;;77.03;20.43;;;;;;;8.57;78.24;101043.47;1790165;80;21478;-45
2023/03/17 04:12:45;;;;;;;75.10;18.80;;;;;;;8.58;78.38;101038.64;1778473;80;21475;-42
2023/03/17 04:15:17;;;;;;;71.62;18.32;;;;;;;8.59;78.44;101040.81;1760154;81;21519;-42
2023/03/17 04:17:45;;;;;;;79.90;20.08;;;;;;;8.59;78.53;101043.44;1760002;81;21112;-42
2023/03/17 04:20:15;;;;;;;69.37;17.40;;;;;;;8.63;78.54;101047.70;1768976;80;21064;-42
2023/03/17 04:22:45;;;;;;;57.48;18.07;;;;;;;8.67;78.44;101054.62;1790236;80;21488;-42
2023/03/17 04:25:15;;;;;;;68.57;17.32;;;;;;;8.66;78.55;101054.19;1790317;80;21590;-42
2023/03/17 04:27:43;;;;;;;70.25;16.45;;;;;;;8.63;78.70;101056.88;1790216;80;21510;-42
2023/03/17 04:30:15;;;;;;;67.45;16.30;;;;;;;8.61;78.86;101056.06;1788038;80;21106;-42
2023/03/17 04:32:45;;;;;;;63.48;18.52;;;;;;;8.60;78.84;101060.46;1794275;80;21150;-42
2023/03/17 04:35:20;;;;;;;60.88;18.23;;;;;;;8.63;78.93;101063.45;1795799;80;21604;-42
2023/03/17 04:37:49;;;;;;;64.00;18.90;;;;;;;8.66;78.96;101065.55;1795834;80;21664;-43
2023/03/17 04:40:19;;;;;;;74.58;19.60;;;;;;;8.71;78.99;101069.38;1795878;80;21495;-43
2023/03/17 04:42:48;;;;;;;76.92;20.45;;;;;;;8.77;78.95;101073.14;1793584;80;21514;-43
2023/03/17 04:45:17;;;;;;;81.45;21.93;;;;;;;8.86;78.87;101073.36;1795762;80;21068;-43
2023/03/17 04:47:46;;;;;;;69.70;21.57;;;;;;;8.93;78.89;101068.79;1795838;80;21071;-43
2023/03/17 04:50:15;;;;;;;72.82;20.08;;;;;;;8.98;78.83;101068.22;1795709;80;21514;-43
2023/03/17 04:52:43;;;;;;;76.02;19.77;;;;;;;9.03;78.66;101074.22;1793554;80;21189;-43
2023/03/17 04:55:13;;;;;;;69.42;18.15;;;;;;;9.10;78.53;101074.46;1795751;80;21067;-42
2023/03/17 04:57:41;;;;;;;75.42;19.37;;;;;;;9.18;78.49;101074.24;1795795;80;21138;-43
2023/03/17 05:00:11;;;;;;;50.33;15.40;;;;;;;9.24;78.35;101077.57;1795751;80;21071;-43
2023/03/17 05:02:40;;;;;;;65.65;18.40;;;;;;;9.30;78.19;101075.69;1793839;80;21032;-41
2023/03/17 05:05:09;;;;;;;65.15;19.73;;;;;;;9.34;78.09;101079.94;1795794;80;21162;-43
2023/03/17 05:07:39;;;;;;;75.50;20.02;;;;;;;9.40;77.97;101081.92;1795769;80;21091;-44
2023/03/17 05:10:08;;;;;;;64.92;19.65;;;;;;;9.44;78.06;101084.02;1795858;80;21499;-44
2023/03/17 05:12:37;;;;;;;71.80;20.20;;;;;;;9.42;78.23;101085.83;1787848;80;21058;-44
2023/03/17 05:15:06;;;;;;;56.63;16.95;;;;;;;9.46;78.25;101090.97;1786757;80;21160;-44
2023/03/17 05:17:35;;;;;;;74.00;17.87;;;;;;;9.53;78.16;101096.89;1786976;80;21501;-41
2023/03/17 05:20:04;;;;;;;69.53;20.43;;;;;;;9.49;78.28;101098.35;1785924;80;21102;-41
2023/03/17 05:22:33;;;;;;;59.85;18.42;;;;;;;9.50;78.36;101095.69;1786959;80;21452;-41
2023/03/17 05:25:02;;;;;;;65.00;18.27;;;;;;;9.51;78.57;101097.39;1786871;80;21133;-41
2023/03/17 05:27:31;;;;;;;72.90;20.40;;;;;;;9.52;78.72;101099.13;1786865;80;21062;-41
2023/03/17 05:30:01;;;;;;;58.87;18.95;;;;;;;9.59;78.64;101099.36;1786846;80;21129;-41
2023/03/17 05:32:30;;;;;;;62.08;18.25;;;;;;;9.68;78.49;101094.72;1762580;81;21654;-41
2023/03/17 05:35:00;;;;;;;62.85;19.15;;;;;;;9.74;78.29;101102.42;1765746;81;21175;-41
2023/03/17 05:37:28;;;;;;;60.50;20.20;;;;;;;9.81;78.10;101102.22;1765892;81;21556;-42
2023/03/17 05:39:58;;;;;;;72.42;20.35;;;;;;;9.88;77.92;101100.24;1765725;81;21606;-41
2023/03/17 05:42:27;;;;;;;66.82;19.27;;;;;;;9.90;77.85;101098.42;1739012;81;21599;-41
2023/03/17 05:44:55;;;;;;;50.75;17.52;;;;;;;9.91;77.87;101110.68;1731975;83;21081;-40
2023/03/17 05:47:24;;;;;;;57.85;19.50;;;;;;;9.92;77.79;101112.38;1731856;83;21073;-42
2023/03/17 05:49:53;;;;;;;63.68;20.05;;;;;;;9.92;77.91;101116.33;1732089;82;21077;-42
2023/03/17 05:52:21;;;;;;;56.80;17.17;;;;;;;9.99;77.89;101122.28;1733676;81;21033;-41
2023/03/17 05:54:51;;;;;;;54.55;16.70;;;;;;;9.98;77.90;101124.06;1731781;83;21057;-43
2023/03/17 05:57:20;;;;;;;67.10;19.62;;;;;;;10.03;77.85;101123.91;1731921;83;21513;-43
2023/03/17 05:59:49;;;;;;;62.25;17.92;;;;;;;10.07;77.74;101132.13;1733835;81;21076;-43
2023/03/17 06:02:18;;;;;;;70.45;18.70;;;;;;;10.10;77.68;101135.97;1758588;81;21070;-41
2023/03/17 06:04:47;;;;;;;69.70;17.85;;;;;;;10.14;77.64;101134.10;1759569;81;21042;-41
2023/03/17 06:07:16;;;;;;;68.75;18.45;;;;;;;10.17;77.57;101134.02;1759499;81;21058;-41
2023/03/17 06:09:45;;;;;;;66.72;17.37;;;;;;;10.23;77.51;101139.08;1758537;81;21133;-41
2023/03/17 06:12:13;;;;;;;63.15;17.75;;;;;;;10.28;77.50;101139.80;1759682;81;21240;-41
2023/03/17 06:14:42;;;;;;;56.00;17.10;;;;;;;10.31;77.53;101145.45;1759700;81;21057;-41
2023/03/17 06:17:11;;;;;;;63.48;19.15;;;;;;;10.33;77.59;101141.87;1759578;81;21131;-42
2023/03/17 06:19:39;;;;;;;66.22;20.52;;;;;;;10.36;77.54;101150.97;1761095;81;21123;-42
2023/03/17 06:22:08;;;;;;;55.12;16.95;;;;;;;10.39;77.42;101146.94;1765840;81;21116;-42
2023/03/17 06:24:37;;;;;;;56.40;16.48;;;;;;;10.43;77.31;101149.88;1765889;81;21555;-41
2023/03/17 06:27:06;;;;;;;61.48;17.77;;;;;;;10.49;77.24;101150.59;1765775;81;21104;-41
2023/03/17 06:29:35;;;;;;;54.58;16.77;;;;;;;10.48;77.16;101152.83;1763659;81;21320;-43
2023/03/17 06:32:04;;;;;;;56.30;16.65;;;;;;;10.49;77.13;101150.59;1759476;81;21139;-43
2023/03/17 06:34:33;;;;;;;57.27;18.60;;;;;;;10.48;77.17;101151.52;1791352;80;21075;-42
2023/03/17 06:37:01;;;;;;;36.42;13.08;;;;;;;10.44;77.37;101159.97;1794016;80;21154;-42
2023/03/17 06:39:30;;;;;;;31.85;11.38;;;;;;;10.45;77.31;101162.14;1795445;80;21043;-40
2023/03/17 06:41:59;;;;;;;27.37;10.23;;;;;;;10.44;77.23;101158.65;1795713;80;21072;-39
2023/03/17 06:44:27;;;;;;;30.45;10.50;;;;;;;10.40;77.25;101163.58;1776711;80;21107;-39
2023/03/17 06:46:56;;;;;;;23.40;9.75;;;;;;;10.39;77.24;101171.94;1765340;81;21056;-39
2023/03/17 06:49:25;;;;;;;21.85;8.98;;;;;;;10.41;77.18;101166.17;1770098;80;21079;-40
2023/03/17 06:51:54;;;;;;;26.57;8.75;;;;;;;10.40;77.15;101165.78;1785915;80;21227;-39
2023/03/17 06:54:24;;;;;;;23.05;9.43;;;;;;;10.40;77.17;101161.84;1786848;80;21071;-41
2023/03/17 06:56:53;;;;;;;22.35;9.08;;;;;;;10.48;77.10;101158.09;1786944;80;21538;-41
2023/03/17 06:59:22;;;;;;;24.65;8.55;;;;;;;10.52;76.97;101158.40;1783796;80;21150;-42
2023/03/17 07:01:51;;;;;;;27.02;10.53;;;;;;;10.50;76.99;101167.66;1765548;81;21212;-40
2023/03/17 07:04:19;;;;;;;33.18;11.48;;;;;;;10.54;77.06;101171.06;1786917;80;21063;-42
2023/03/17 07:06:48;;;;;;;29.87;8.90;;;;;;;10.59;76.96;101167.36;1795709;80;21148;-43
2023/03/17 07:09:17;;;;;;;21.80;8.48;;;;;;;10.65;76.86;101162.35;1783600;80;21068;-43
2023/03/17 07:11:46;;;;;;;26.60;10.05;;;;;;;10.67;76.66;101160.98;1765432;81;21056;-42
2023/03/17 07:14:14;;;;;;;29.50;10.30;;;;;;;10.64;76.61;101156.66;1765466;81;21140;-41
2023/03/17 07:16:43;;;;;;;28.23;10.20;;;;;;;10.65;76.48;101158.40;1765689;81;21178;-42
2023/03/17 07:19:12;;;;;;;28.70;10.72;;;;;;;10.64;76.43;101159.30;1777175;80;21038;-42
2023/03/17 07:21:41;;;;;;;24.72;10.60;;;;;;;10.65;76.45;101158.40;1786805;80;21074;-42
2023/03/17 07:24:11;;;;;;;27.20;10.63;;;;;;;10.69;76.54;101157.84;1786999;80;21066;-42
2023/03/17 07:26:40;;;;;;;31.95;12.43;;;;;;;10.71;76.39;101164.77;1786861;80;21145;-43
2023/03/17 07:29:09;;;;;;;28.35;12.15;;;;;;;10.71;76.43;101166.09;1790801;80;21067;-41
2023/03/17 07:31:37;;;;;;;25.95;9.93;;;;;;;10.68;76.36;101163.58;1795775;80;21572;-41
2023/03/17 07:34:06;;;;;;;21.90;9.23;;;;;;;10.66;76.40;101161.45;1757184;80;21097;-41
2023/03/17 07:36:35;;;;;;;31.23;12.75;;;;;;;10.62;76.48;101157.17;1731888;83;21152;-41
2023/03/17 07:39:04;;;;;;;32.10;10.45;;;;;;;10.61;76.48;101160.73;1738522;80;21168;-42
2023/03/17 07:41:33;;;;;;;28.47;10.35;;;;;;;10.62;76.53;101165.08;1765815;80;21245;-43
2023/03/17 07:44:02;;;;;;;27.75;9.65;;;;;;;10.62;76.53;101167.70;1765735;81;21109;-42
2023/03/17 07:46:31;;;;;;;23.12;9.18;;;;;;;10.64;76.54;101167.20;1765956;81;21626;-42
2023/03/17 07:49:00;;;;;;;28.38;10.15;;;;;;;10.68;76.49;101179.37;1753294;81;21556;-41
2023/03/17 07:51:29;;;;;;;33.92;11.35;;;;;;;10.69;76.44;101175.81;1731721;83;21045;-43
2023/03/17 07:54:02;;;;;;;29.70;10.43;;;;;;;10.70;76.33;101189.41;1731882;83;21085;-41
2023/03/17 07:56:28;;;;;;;32.53;11.60;;;;;;;10.67;76.17;101193.45;1731577;82;21073;-43
2023/03/17 07:58:57;;;;;;;26.02;10.72;;;;;;;10.67;76.18;101185.55;1733493;81;21078;-40
2023/03/17 08:01:27;;;;;;;21.40;10.15;;;;;;;10.71;76.06;101191.58;1758522;80;21554;-42
2023/03/17 08:03:56;;;;;;;35.78;12.35;;;;;;;10.65;76.21;101197.91;1748970;81;21515;-42
2023/03/17 08:06:25;;;;;;;27.05;9.53;;;;;;;10.65;76.24;101198.37;1738377;81;21124;-42
2023/03/17 08:08:54;;;;;;;25.95;9.35;;;;;;;10.65;76.23;101193.95;1763579;81;21786;-41
2023/03/17 08:11:23;;;;;;;34.08;11.83;;;;;;;10.72;76.17;101198.58;1754899;81;21739;-41
2023/03/17 08:13:52;;;;;;;32.53;11.50;;;;;;;10.71;76.08;101195.06;1731940;83;21148;-42
2023/03/17 08:16:20;;;;;;;27.90;11.60;;;;;;;10.73;76.06;101197.66;1731800;83;21061;-44
2023/03/17 08:18:49;;;;;;;39.42;12.13;;;;;;;10.78;76.00;101199.22;1737466;81;21467;-42
2023/03/17 08:21:19;;;;;;;36.03;12.82;;;;;;;10.80;75.91;101197.86;1765753;80;21575;-42
2023/03/17 08:23:48;;;;;;;32.48;12.03;;;;;;;10.83;75.88;101200.41;1765880;80;21072;-42
2023/03/17 08:26:18;;;;;;;29.12;11.85;;;;;;;10.90;75.74;101196.66;1765895;81;21096;-42
2023/03/17 08:28:47;;;;;;;27.50;10.82;;;;;;;10.95;75.59;101196.03;1765784;81;21147;-42
2023/03/17 08:31:19;;;;;;;32.48;12.25;;;;;;;11.01;75.70;101192.33;1760203;81;21135;-39
2023/03/17 08:33:50;;;;;;;42.43;12.93;;;;;;;11.04;75.88;101186.11;1751093;81;21053;-40
2023/03/17 08:36:20;;;;;;;36.65;12.90;;;;;;;11.17;75.75;101196.17;1759796;80;21103;-40
2023/03/17 08:38:49;;;;;;;39.15;12.95;;;;;;;11.33;75.47;101196.52;1763668;80;21532;-41
2023/03/17 08:41:21;;;;;;;34.67;13.80;;;;;;;11.50;75.23;101199.86;1770449;80;21144;-40
2023/03/17 08:43:51;;;;;;;31.50;13.75;;;;;;;11.71;75.10;101196.94;1752875;82;21248;-41
2023/03/17 08:46:25;;;;;;;35.78;11.88;;;;;;;11.96;74.79;101196.05;1787484;80;21633;-40
2023/03/17 08:48:56;;;;;;;33.15;12.93;;;;;;;12.07;74.52;101198.28;1790292;80;21668;-39
2023/03/17 08:51:28;;;;;;;36.48;14.25;;;;;;;12.26;74.39;101202.39;1797869;79;21565;-40
2023/03/17 08:53:58;;;;;;;37.08;14.58;;;;;;;12.49;74.16;101202.83;1819729;79;21542;-41
2023/03/17 08:56:27;;;;;;;37.55;13.98;;;;;;;12.71;73.84;101203.68;1819786;79;21121;-41
2023/03/17 08:58:57;;;;;;;35.05;14.10;;;;;;;12.81;73.63;101204.62;1819843;79;21521;-40
2023/03/17 09:01:26;;;;;;;33.98;13.35;;;;;;;12.90;73.64;101208.21;1819915;79;21454;-40
2023/03/17 09:03:55;;;;;;;37.78;12.90;;;;;;;13.07;73.57;101210.15;1819828;79;21102;-40
2023/03/17 09:06:25;;;;;;;41.55;13.48;;;;;;;13.28;73.40;101209.72;1819930;79;21168;-44
2023/03/17 09:08:56;;;;;;;31.20;11.97;;;;;;;13.51;73.23;101204.30;1819853;79;21662;-40
2023/03/17 09:11:27;;;;;;;33.00;13.80;;;;;;;13.88;72.77;101206.63;1819954;79;21509;-40
2023/03/17 09:13:56;;;;;;;30.77;12.20;;;;;;;14.39;72.15;101203.44;1819857;79;21133;-40
2023/03/17 09:16:26;;;;;;;34.58;13.83;;;;;;;14.75;71.39;101206.11;1819961;79;21117;-40
2023/03/17 09:18:55;;;;;;;37.67;14.73;;;;;;;14.71;71.23;101213.83;1819928;79;21549;-41
2023/03/17 09:21:24;;;;;;;30.50;12.68;;;;;;;14.73;71.04;101209.78;1819923;79;21126;-40
2023/03/17 09:23:52;;;;;;;41.88;14.18;;;;;;;14.87;70.55;101204.66;1819837;79;21059;-40
2023/03/17 09:26:23;;;;;;;34.70;14.38;;;;;;;15.04;70.08;101205.14;1819853;79;21070;-40
2023/03/17 09:28:52;;;;;;;39.33;15.38;;;;;;;15.23;69.92;101203.73;1819881;79;21060;-40
2023/03/17 09:31:20;;;;;;;27.85;12.25;;;;;;;15.36;69.39;101208.81;1819950;79;21062;-40
2023/03/17 09:33:51;;;;;;;26.40;11.03;;;;;;;15.41;69.45;101205.44;1819755;79;21086;-40
2023/03/17 09:36:19;;;;;;;23.92;10.25;;;;;;;15.52;68.94;101206.69;1823580;78;21102;-40
2023/03/17 09:38:48;;;;;;;21.70;9.85;;;;;;;15.94;68.21;101199.59;1825688;78;21070;-40
2023/03/17 09:41:22;;;;;;;23.40;9.43;;;;;;;16.23;66.31;101197.59;1825679;78;21026;-40
2023/03/17 09:44:13;;;;;;;24.18;10.58;;;;;;;16.26;65.09;101198.76;1825561;78;21058;-40
2023/03/17 09:47:09;;;;;;;21.17;8.68;;;;;;;16.26;64.40;101193.45;1825618;78;21050;-40
2023/03/17 09:49:47;;;;;;;20.12;9.35;;;;;;;16.41;63.94;101195.23;1825692;78;21525;-40
2023/03/17 09:52:19;;;;;;;24.55;10.40;;;;;;;16.58;64.04;101187.62;1825568;78;21516;-40
2023/03/17 09:54:48;;;;;;;23.47;9.93;;;;;;;16.71;63.78;101175.81;1825377;78;21222;-40
2023/03/17 09:57:25;;;;;;;21.50;9.65;;;;;;;16.69;63.43;101182.58;1825577;78;21501;-40
2023/03/17 10:00:00;;;;;;;26.35;10.58;;;;;;;16.96;63.60;101177.95;1825220;78;21132;-40
2023/03/17 10:02:32;;;;;;;23.98;9.90;;;;;;;17.10;63.23;101177.14;1825586;78;21591;-40
2023/03/17 10:05:04;;;;;;;24.20;9.48;;;;;;;17.33;63.20;101179.73;1825574;78;21571;-40
2023/03/17 10:07:41;;;;;;;28.42;10.35;;;;;;;17.16;61.58;101170.12;1824820;78;21604;-40
2023/03/17 10:10:22;;;;;;;26.23;10.35;;;;;;;16.94;61.71;101170.05;1818048;78;21062;-40
2023/03/17 10:13:13;;;;;;;22.50;10.03;;;;;;;16.86;61.76;101176.31;1825149;78;21509;-40
2023/03/17 10:15:54;;;;;;;26.33;10.03;;;;;;;17.15;61.03;101171.05;1825602;78;21058;-40
2023/03/17 10:18:25;;;;;;;19.55;6.97;;;;;;;17.18;60.44;101171.72;1825571;78;21143;-40
2023/03/17 10:21:06;;;;;;;23.07;9.70;;;;;;;17.24;60.57;101169.17;1825654;78;21073;-40
2023/03/17 10:23:36;;;;;;;21.60;9.40;;;;;;;17.83;60.48;101174.91;1825621;78;21552;-39
2023/03/17 10:26:13;;;;;;;23.20;10.93;;;;;;;18.55;59.78;101175.65;1825599;78;22683;-40
2023/03/17 10:28:43;;;;;;;20.77;9.38;;;;;;;19.39;58.43;101174.97;1808433;78;21611;-39
2023/03/17 10:31:20;;;;;;;23.75;9.58;;;;;;;19.72;57.46;101167.74;1825533;78;21140;-40
2023/03/17 10:33:52;;;;;;;20.60;9.43;;;;;;;19.47;57.78;101172.12;1825650;78;21497;-40
2023/03/17 10:36:36;;;;;;;25.02;10.23;;;;;;;19.75;57.60;101165.36;1825347;78;21168;-40
2023/03/17 10:39:07;;;;;;;22.87;10.65;;;;;;;20.26;55.84;101171.92;1825535;78;21153;-40
2023/03/17 10:41:38;;;;;;;23.87;9.78;;;;;;;20.04;55.24;101169.95;1825571;78;21078;-40
2023/03/17 10:44:12;;;;;;;25.57;10.38;;;;;;;20.52;55.26;101166.48;1825490;78;21070;-40
2023/03/17 10:46:41;;;;;;;23.45;9.70;;;;;;;20.39;54.31;101156.68;1824200;78;21035;-40
2023/03/17 10:49:12;;;;;;;24.35;10.28;;;;;;;20.11;54.17;101160.53;1825526;78;21062;-40
2023/03/17 10:51:43;;;;;;;20.43;9.88;;;;;;;19.79;54.65;101158.83;1825227;78;21070;-40
2023/03/17 10:54:17;;;;;;;19.55;9.03;;;;;;;19.83;54.54;101155.84;1825688;78;21129;-40
2023/03/17 10:56:49;;;;;;;18.05;7.83;;;;;;;19.93;54.17;101156.02;1825757;78;21148;-40
2023/03/17 10:59:29;;;;;;;24.87;10.28;;;;;;;20.53;53.62;101142.78;1825556;78;21062;-40
2023/03/17 11:02:02;;;;;;;24.98;10.38;;;;;;;21.00;52.98;101139.69;1825535;78;21063;-40
2023/03/17 11:04:36;;;;;;;24.67;10.63;;;;;;;20.95;52.82;101139.18;1825477;78;21116;-39
2023/03/17 11:07:20;;;;;;;24.18;10.48;;;;;;;20.94;52.41;101140.16;1825506;78;21117;-40
2023/03/17 11:09:49;;;;;;;;;;;;;;;20.69;52.08;101143.84;1828119;78;21549;-40
2023/03/17 11:12:31;;;;;;;21.05;9.73;;;;;;;20.34;52.67;101144.62;1825538;78;20403;-40
2023/03/17 11:15:05;;;;;;;27.37;12.25;;;;;;;20.57;52.57;101144.26;1825532;78;21066;-40
2023/03/17 11:17:40;;;;;;;24.53;10.83;;;;;;;20.25;51.97;101143.00;1825888;78;21505;-40
2023/03/17 11:20:15;;;;;;;24.95;11.12;;;;;;;19.92;52.32;101140.09;1825410;78;21132;-40
2023/03/17 11:22:47;;;;;;;29.92;10.85;;;;;;;20.29;51.89;101131.59;1825119;78;21529;-40
2023/03/17 11:25:22;;;;;;;26.33;11.60;;;;;;;20.59;51.17;101139.64;1824891;78;21114;-40
2023/03/17 11:27:56;;;;;;;26.85;10.75;;;;;;;20.86;50.58;101143.44;1825564;78;21094;-39
2023/03/17 11:30:39;;;;;;;30.00;11.43;;;;;;;20.89;50.47;101146.35;1825428;78;21132;-40